Startpagina
METAR-TAF:

METAR-TAF

Vliegvelden :

Internationale luchthaven La Aurora

Guatemala-stad, Guatemala

breedte: 14-35N, lengte: 090-31W, hoogte: 1489 m

Actueel weer

Dit bericht is 1 uur en het 11 minuten geleden gemaakt, om 03:00 UTC
Wind 16 kt uit het noorden
Temperatuur 18°C
Vochtigheid 88%
Druk 1028 hPa
Zicht 10 km of meer
Gebroken wolken op 1400 ft

METAR: MGGT 210300Z 36016KT 9999 BKN014 18/16 Q1028 A3036

Tijdstip: 22:11 (04:11 UTC)

Verwachting

Dit bericht is 5 uur en het 11 minuten geleden gemaakt, om 23:00 UTC
Verwachting geldig van 21 om 00 UTC tot 22 om 00 UTC
Wind 14 kt uit het noorden
Zicht 10 km of meer
Verspreide wolken op 1400 ft
Kans 30% :
Tijdelijke
van 21 om 00 UTC tot 21 om 03 UTC
Gebroken wolken op 1800 ft
motregen
Wijzigt naar
van 21 om 15 UTC tot 21 om 17 UTC
Wind 14 kt uit het noorden
Verspreide wolken op 1800 ft

TAF: MGGT 202300Z 2100/2200 36014KT 9999 SCT014 TX23/2120Z TN16/2112Z PROB30 TEMPO 2100/2103 DZ BKN018 BECMG 2115/2117 36014KT SCT018

Waarnemingen en weersverwachtingen van meer dan 4000 vliegvelden (METAR en TAF).

De beschikbare stations zijn de gele en rode punten op de kaart.

Ga met uw muis naar het station om de naam te zien.

Klik dan om waarnemingen en weersverwachtingen te zien.

kaart wijzigen: klik op de groene knoppen met een zwart kruis om in te zoomen, op de groene knop met een streepje om uit te zoomen of op de groene pijlen voor aangrenzende kaarten.


METAR-TAF: